Time,TemperatureF,DewpointF,PressureIn,WindDirection,WindDirectionDegrees,WindSpeedMPH,WindSpeedGustMPH,Humidity,HourlyPrecipIn,Conditions,Clouds,dailyrainin,SoftwareType,DateUTC
2013-02-28 00:00:00,33.4,33.4,28.52,South,180,10.4,10.4,100,0.00,RA,SKC,0.00,WeatherDisplay:10.37,2013-02-28 05:00:00,
2013-02-28 00:04:00,33.4,33.4,28.52,South,180,8.1,8.1,100,0.00,RA,SKC,0.00,WeatherDisplay:10.37,2013-02-28 05:04:00,
2013-02-28 00:06:00,33.4,33.4,28.52,South,180,8.1,8.1,100,0.00,RA,SKC,0.00,WeatherDisplay:10.37,2013-02-28 05:06:00,
2013-02-28 00:11:00,33.4,33.4,28.52,NE,45,5.8,5.8,100,0.00,CLR,SKC,0.00,WeatherDisplay:10.37,2013-02-28 05:11:00,
2013-02-28 00:16:00,33.4,33.4,28.52,South,180,2.3,2.3,100,0.00,,SKC,0.00,WeatherDisplay:10.37,2013-02-28 05:16:00,
2013-02-28 00:21:00,33.3,33.3,28.52,North,0,3.5,3.5,100,0.00,,SKC,0.00,WeatherDisplay:10.37,2013-02-28 05:21:00,
2013-02-28 00:26:00,33.3,33.3,28.52,East,90,6.9,6.9,100,0.00,,SKC,0.00,WeatherDisplay:10.37,2013-02-28 05:26:00,
2013-02-28 00:31:00,33.3,33.3,28.52,South,180,4.6,4.6,100,0.00,,SKC,0.00,WeatherDisplay:10.37,2013-02-28 05:31:00,
2013-02-28 00:36:00,33.4,33.4,28.53,SE,135,5.8,5.8,100,0.00,,SKC,0.00,WeatherDisplay:10.37,2013-02-28 05:36:00,
2013-02-28 00:41:00,33.4,33.4,28.52,SE,135,5.8,5.8,100,0.00,,SKC,0.00,WeatherDisplay:10.37,2013-02-28 05:41:00,
2013-02-28 00:46:00,33.4,33.4,28.53,North,8,6.9,6.9,100,0.00,,SKC,0.00,WeatherDisplay:10.37,2013-02-28 05:46:00,
2013-02-28 00:51:00,33.3,33.3,28.53,NW,315,4.6,4.6,100,0.00,,SKC,0.00,WeatherDisplay:10.37,2013-02-28 05:51:00,
2013-02-28 00:56:00,33.3,33.3,28.52,SE,135,5.8,5.8,100,0.00,,SKC,0.00,WeatherDisplay:10.37,2013-02-28 05:56:00,
2013-02-28 01:01:00,33.3,33.3,28.53,NW,315,5.8,5.8,100,0.00,,SKC,0.00,WeatherDisplay:10.37,2013-02-28 06:01:00,
2013-02-28 01:06:00,33.3,33.3,28.52,NW,315,5.8,5.8,100,0.00,,SKC,0.00,WeatherDisplay:10.37,2013-02-28 06:06:00,
2013-02-28 01:11:00,33.3,33.3,28.52,WNW,292,6.9,6.9,100,0.00,,SKC,0.00,WeatherDisplay:10.37,2013-02-28 06:11:00,
2013-02-28 01:16:00,33.3,33.3,28.53,South,180,3.5,3.5,100,0.00,,SKC,0.00,WeatherDisplay:10.37,2013-02-28 06:16:00,
2013-02-28 01:21:00,33.1,33.1,28.53,North,10,4.6,4.6,100,0.00,,SKC,0.00,WeatherDisplay:10.37,2013-02-28 06:21:00,
2013-02-28 01:26:00,33.1,33.1,28.53,South,180,6.9,6.9,100,0.00,,SKC,0.00,WeatherDisplay:10.37,2013-02-28 06:26:00,
2013-02-28 01:31:00,33.1,33.1,28.53,WNW,292,6.9,6.9,100,0.00,,SKC,0.00,WeatherDisplay:10.37,2013-02-28 06:31:00,
2013-02-28 01:36:00,33.1,33.1,28.53,North,7,8.1,8.1,100,0.00,,SKC,0.00,WeatherDisplay:10.37,2013-02-28 06:36:00,
2013-02-28 01:41:00,32.9,32.9,28.53,South,180,5.8,5.8,100,0.00,,SKC,0.00,WeatherDisplay:10.37,2013-02-28 06:41:00,
2013-02-28 01:46:00,32.7,32.7,28.53,East,90,5.8,5.8,100,0.00,,SKC,0.00,WeatherDisplay:10.37,2013-02-28 06:46:00,
2013-02-28 01:51:00,32.5,32.5,28.53,West,270,8.1,8.1,100,0.00,,SKC,0.00,WeatherDisplay:10.37,2013-02-28 06:51:00,
2013-02-28 01:56:00,32.4,32.4,28.52,South,180,8.1,8.1,100,0.00,,SKC,0.00,WeatherDisplay:10.37,2013-02-28 06:56:00,
2013-02-28 02:01:00,32.4,32.4,28.52,SE,135,3.5,3.5,100,0.00,,SKC,0.00,WeatherDisplay:10.37,2013-02-28 07:01:00,
2013-02-28 02:06:00,32.4,32.4,28.52,SE,135,2.3,2.3,100,0.00,,SKC,0.00,WeatherDisplay:10.37,2013-02-28 07:06:00,
2013-02-28 02:11:00,32.2,32.2,28.52,South,180,4.6,4.6,100,0.00,,SKC,0.00,WeatherDisplay:10.37,2013-02-28 07:11:00,
2013-02-28 02:16:00,32.2,32.2,28.52,South,180,8.1,8.1,100,0.00,,SKC,0.00,WeatherDisplay:10.37,2013-02-28 07:16:00,
2013-02-28 02:21:00,32.2,32.2,28.52,NNE,16,8.1,8.1,100,0.00,,SKC,0.00,WeatherDisplay:10.37,2013-02-28 07:21:00,
2013-02-28 02:26:00,32.2,32.2,28.52,NE,45,9.2,9.2,100,0.00,,SKC,0.00,WeatherDisplay:10.37,2013-02-28 07:26:00,
2013-02-28 02:31:00,32.2,32.2,28.52,SE,135,5.8,5.8,100,0.00,,SKC,0.00,WeatherDisplay:10.37,2013-02-28 07:31:00,
2013-02-28 02:36:00,32.2,32.2,28.52,SE,135,3.5,3.5,100,0.00,,SKC,0.00,WeatherDisplay:10.37,2013-02-28 07:36:00,
2013-02-28 02:41:00,32.2,32.2,28.52,North,0,3.5,3.5,100,0.00,,SKC,0.00,WeatherDisplay:10.37,2013-02-28 07:41:00,
2013-02-28 02:46:00,32.2,32.2,28.52,WNW,292,10.4,10.4,100,0.00,,SKC,0.00,WeatherDisplay:10.37,2013-02-28 07:46:00,
2013-02-28 02:51:00,32.2,32.2,28.51,NE,45,5.8,5.8,100,0.00,,SKC,0.00,WeatherDisplay:10.37,2013-02-28 07:51:00,
2013-02-28 02:56:00,32.2,32.2,28.51,North,4,2.3,2.3,100,0.00,,SKC,0.00,WeatherDisplay:10.37,2013-02-28 07:56:00,
2013-02-28 03:01:00,32.2,32.2,28.51,North,2,3.5,3.5,100,0.00,,SKC,0.00,WeatherDisplay:10.37,2013-02-28 08:01:00,
2013-02-28 03:06:00,32.2,32.2,28.51,North,0,3.5,3.5,100,0.00,,SKC,0.00,WeatherDisplay:10.37,2013-02-28 08:06:00,
2013-02-28 03:11:00,32.2,32.2,28.51,South,180,5.8,5.8,100,0.00,,SKC,0.00,WeatherDisplay:10.37,2013-02-28 08:11:00,
2013-02-28 03:16:00,32.2,32.2,28.51,NNE,13,5.8,5.8,100,0.00,,SKC,0.00,WeatherDisplay:10.37,2013-02-28 08:16:00,
2013-02-28 03:21:00,32.2,32.2,28.51,NW,315,4.6,4.6,100,0.00,,SKC,0.00,WeatherDisplay:10.37,2013-02-28 08:21:00,
2013-02-28 03:26:00,32.2,32.2,28.51,NNE,14,3.5,0.0,100,0.00,,SKC,0.00,WeatherDisplay:10.37,2013-02-28 08:26:00,
2013-02-28 03:31:00,32.2,32.2,28.50,South,180,3.5,3.5,100,0.00,,SKC,0.00,WeatherDisplay:10.37,2013-02-28 08:31:00,
2013-02-28 03:36:00,32.2,32.2,28.51,SE,135,3.5,3.5,100,0.00,,SKC,0.00,WeatherDisplay:10.37,2013-02-28 08:36:00,
2013-02-28 03:41:00,32.2,32.2,28.51,South,180,5.8,5.8,100,0.00,,SKC,0.00,WeatherDisplay:10.37,2013-02-28 08:41:00,
2013-02-28 03:46:00,32.2,32.2,28.51,SE,135,3.5,3.5,100,0.00,,SKC,0.00,WeatherDisplay:10.37,2013-02-28 08:46:00,
2013-02-28 03:51:00,32.2,32.2,28.51,South,180,3.5,3.5,100,0.00,,SKC,0.00,WeatherDisplay:10.37,2013-02-28 08:51:00,
2013-02-28 03:56:00,32.2,32.2,28.50,SE,135,5.8,5.8,100,0.00,,SKC,0.00,WeatherDisplay:10.37,2013-02-28 08:56:00,
2013-02-28 04:01:00,32.2,32.2,28.50,South,180,8.1,8.1,100,0.00,,SKC,0.00,WeatherDisplay:10.37,2013-02-28 09:01:00,
2013-02-28 04:06:00,32.2,32.2,28.50,South,180,8.1,8.1,100,0.00,,SKC,0.00,WeatherDisplay:10.37,2013-02-28 09:06:00,
2013-02-28 04:11:00,32.2,32.2,28.50,South,180,4.6,4.6,100,0.00,,SKC,0.00,WeatherDisplay:10.37,2013-02-28 09:11:00,
2013-02-28 04:16:00,32.2,32.2,28.50,South,180,5.8,5.8,100,0.00,,SKC,0.00,WeatherDisplay:10.37,2013-02-28 09:16:00,
2013-02-28 04:21:00,32.2,32.2,28.50,South,180,5.8,5.8,100,0.00,,SKC,0.00,WeatherDisplay:10.37,2013-02-28 09:21:00,
2013-02-28 04:26:00,32.4,32.4,28.50,NW,315,5.8,5.8,100,0.00,,SKC,0.00,WeatherDisplay:10.37,2013-02-28 09:26:00,
2013-02-28 04:31:00,32.4,32.4,28.51,North,0,5.8,5.8,100,0.00,,SKC,0.00,WeatherDisplay:10.37,2013-02-28 09:31:00,
2013-02-28 04:36:00,32.4,32.4,28.51,NW,315,4.6,4.6,100,0.00,,SKC,0.00,WeatherDisplay:10.37,2013-02-28 09:36:00,
2013-02-28 04:41:00,32.4,32.4,28.50,NW,315,5.8,5.8,100,0.00,,SKC,0.00,WeatherDisplay:10.37,2013-02-28 09:41:00,
2013-02-28 04:46:00,32.4,32.4,28.51,North,0,3.5,3.5,100,0.00,,SKC,0.00,WeatherDisplay:10.37,2013-02-28 09:46:00,
2013-02-28 04:51:00,32.4,32.4,28.50,South,180,3.5,3.5,100,0.00,,SKC,0.00,WeatherDisplay:10.37,2013-02-28 09:51:00,
2013-02-28 04:56:00,32.4,32.4,28.50,South,180,3.5,3.5,100,0.00,,SKC,0.00,WeatherDisplay:10.37,2013-02-28 09:56:00,
2013-02-28 05:01:00,32.4,32.4,28.50,South,180,5.8,5.8,100,0.00,,SKC,0.00,WeatherDisplay:10.37,2013-02-28 10:01:00,
2013-02-28 05:06:00,32.4,32.4,28.50,South,180,2.3,2.3,100,0.00,,SKC,0.00,WeatherDisplay:10.37,2013-02-28 10:06:00,
2013-02-28 05:11:00,32.4,32.4,28.50,South,180,8.1,8.1,100,0.00,,SKC,0.00,WeatherDisplay:10.37,2013-02-28 10:11:00,
2013-02-28 05:16:00,32.4,32.4,28.50,North,10,5.8,5.8,100,0.00,,SKC,0.00,WeatherDisplay:10.37,2013-02-28 10:16:00,
2013-02-28 05:21:00,32.4,32.4,28.50,North,8,5.8,5.8,100,0.00,,SKC,0.00,WeatherDisplay:10.37,2013-02-28 10:21:00,
2013-02-28 05:26:00,32.2,32.2,28.50,South,180,2.3,2.3,100,0.00,,SKC,0.00,WeatherDisplay:10.37,2013-02-28 10:26:00,
2013-02-28 05:31:00,32.2,32.2,28.50,West,270,3.5,3.5,100,0.00,,SKC,0.00,WeatherDisplay:10.37,2013-02-28 10:31:00,
2013-02-28 05:36:00,32.2,32.2,28.50,South,180,5.8,5.8,100,0.00,,SKC,0.00,WeatherDisplay:10.37,2013-02-28 10:36:00,
2013-02-28 05:41:00,32.2,32.2,28.50,South,180,3.5,3.5,100,0.00,,SKC,0.00,WeatherDisplay:10.37,2013-02-28 10:41:00,
2013-02-28 05:46:00,32.2,32.2,28.50,South,180,3.5,3.5,100,0.00,,SKC,0.00,WeatherDisplay:10.37,2013-02-28 10:46:00,
2013-02-28 05:51:00,32.2,32.2,28.50,South,180,4.6,4.6,100,0.00,,SKC,0.00,WeatherDisplay:10.37,2013-02-28 10:51:00,
2013-02-28 05:56:00,32.2,32.2,28.50,South,180,3.5,3.5,100,0.00,,SKC,0.00,WeatherDisplay:10.37,2013-02-28 10:56:00,
2013-02-28 06:01:00,32.0,32.0,28.50,South,180,1.2,0.0,100,0.00,,SKC,0.00,WeatherDisplay:10.37,2013-02-28 11:01:00,
2013-02-28 06:06:00,32.0,32.0,28.50,South,180,1.2,0.0,100,0.00,,SKC,0.00,WeatherDisplay:10.37,2013-02-28 11:06:00,
2013-02-28 06:11:00,32.0,32.0,28.50,South,180,1.2,0.0,100,0.00,,SKC,0.00,WeatherDisplay:10.37,2013-02-28 11:11:00,
2013-02-28 06:16:00,32.0,32.0,28.50,South,180,3.5,3.5,100,0.00,,SKC,0.00,WeatherDisplay:10.37,2013-02-28 11:16:00,
2013-02-28 06:21:00,32.2,32.2,28.50,SE,135,5.8,5.8,100,0.00,,SKC,0.00,WeatherDisplay:10.37,2013-02-28 11:21:00,
2013-02-28 06:26:00,32.2,32.2,28.50,South,180,5.8,5.8,100,0.00,,SKC,0.00,WeatherDisplay:10.37,2013-02-28 11:26:00,
2013-02-28 06:31:00,32.2,32.2,28.50,South,180,3.1,3.1,100,0.00,,SKC,0.00,WeatherDisplay:10.37,2013-02-28 11:31:00,
2013-02-28 06:36:00,32.2,32.2,28.50,SE,135,3.5,3.5,100,0.00,,SKC,0.00,WeatherDisplay:10.37,2013-02-28 11:36:00,
2013-02-28 06:41:00,32.2,32.2,28.50,SE,135,1.2,0.0,100,0.00,,SKC,0.00,WeatherDisplay:10.37,2013-02-28 11:41:00,
2013-02-28 06:46:00,32.2,32.2,28.50,South,180,4.6,4.6,100,0.00,,SKC,0.00,WeatherDisplay:10.37,2013-02-28 11:46:00,
2013-02-28 06:51:00,32.2,32.2,28.50,SE,135,3.5,3.5,100,0.00,,SKC,0.00,WeatherDisplay:10.37,2013-02-28 11:51:00,
2013-02-28 06:56:00,32.2,32.2,28.50,South,180,3.5,3.5,100,0.00,,SKC,0.00,WeatherDisplay:10.37,2013-02-28 11:56:00,
2013-02-28 07:01:00,32.2,32.2,28.50,East,90,3.5,3.5,100,0.00,,SKC,0.00,WeatherDisplay:10.37,2013-02-28 12:01:00,
2013-02-28 07:06:00,32.2,32.2,28.50,East,90,3.5,3.5,100,0.00,,SKC,0.00,WeatherDisplay:10.37,2013-02-28 12:06:00,
2013-02-28 07:11:00,32.2,32.2,28.50,North,9,4.6,4.6,100,0.00,,SKC,0.00,WeatherDisplay:10.37,2013-02-28 12:11:00,
2013-02-28 07:16:00,32.2,32.2,28.50,South,180,4.6,4.6,100,0.00,,SKC,0.00,WeatherDisplay:10.37,2013-02-28 12:16:00,
2013-02-28 07:21:00,32.2,32.2,28.50,South,180,3.5,3.5,100,0.00,,SKC,0.00,WeatherDisplay:10.37,2013-02-28 12:21:00,
2013-02-28 07:26:00,32.2,32.2,28.50,North,2,9.2,9.2,100,0.00,,SKC,0.00,WeatherDisplay:10.37,2013-02-28 12:26:00,
2013-02-28 07:31:00,32.2,32.2,28.50,West,270,6.9,6.9,100,0.00,,SKC,0.00,WeatherDisplay:10.37,2013-02-28 12:31:00,
2013-02-28 07:36:00,32.2,32.2,28.50,SE,135,5.8,5.8,100,0.00,,SKC,0.00,WeatherDisplay:10.37,2013-02-28 12:36:00,
2013-02-28 07:41:00,32.2,32.2,28.50,South,180,8.1,8.1,100,0.00,,SKC,0.00,WeatherDisplay:10.37,2013-02-28 12:41:00,
2013-02-28 07:46:00,32.2,32.2,28.51,West,270,5.8,5.8,100,0.00,,SKC,0.00,WeatherDisplay:10.37,2013-02-28 12:46:00,
2013-02-28 07:51:00,32.4,32.4,28.50,South,180,5.8,5.8,100,0.00,,SKC,0.00,WeatherDisplay:10.37,2013-02-28 12:51:00,
2013-02-28 07:56:00,32.4,32.4,28.51,North,6,4.6,4.6,100,0.00,,SKC,0.00,WeatherDisplay:10.37,2013-02-28 12:56:00,
2013-02-28 08:01:00,32.4,32.4,28.51,West,270,2.3,0.0,100,0.00,,SKC,0.00,WeatherDisplay:10.37,2013-02-28 13:01:00,
2013-02-28 08:06:00,32.4,32.4,28.51,West,270,2.3,0.0,100,0.00,,SKC,0.00,WeatherDisplay:10.37,2013-02-28 13:06:00,
2013-02-28 08:11:00,32.4,32.4,28.51,NE,45,4.6,4.6,100,0.00,,SKC,0.00,WeatherDisplay:10.37,2013-02-28 13:11:00,
2013-02-28 08:16:00,32.4,32.4,28.51,South,180,5.8,5.8,100,0.00,,SKC,0.00,WeatherDisplay:10.37,2013-02-28 13:16:00,
2013-02-28 08:21:00,32.4,32.4,28.52,NE,45,8.1,8.1,100,0.00,,SKC,0.00,WeatherDisplay:10.37,2013-02-28 13:21:00,
2013-02-28 08:26:00,32.4,32.4,28.51,North,0,9.2,9.2,100,0.00,,SKC,0.00,WeatherDisplay:10.37,2013-02-28 13:26:00,
2013-02-28 08:31:00,32.5,32.3,28.51,North,0,5.8,5.8,99,0.00,,SKC,0.00,WeatherDisplay:10.37,2013-02-28 13:31:00,
2013-02-28 08:36:00,32.4,31.9,28.52,SE,135,4.6,4.6,98,0.00,CLR,SKC,0.00,WeatherDisplay:10.37,2013-02-28 13:36:00,
2013-02-28 08:41:00,32.5,31.8,28.52,North,8,3.5,3.5,97,0.00,CLR,SKC,0.00,WeatherDisplay:10.37,2013-02-28 13:41:00,
2013-02-28 08:46:00,32.5,31.8,28.51,West,270,3.5,3.5,97,0.00,CLR,SKC,0.00,WeatherDisplay:10.37,2013-02-28 13:46:00,
2013-02-28 08:51:00,32.5,31.8,28.51,West,270,6.9,6.9,97,0.00,CLR,SKC,0.00,WeatherDisplay:10.37,2013-02-28 13:51:00,
2013-02-28 08:56:00,32.5,31.8,28.51,South,180,6.9,6.9,97,0.00,CLR,SKC,0.00,WeatherDisplay:10.37,2013-02-28 13:56:00,
2013-02-28 09:01:00,32.4,31.6,28.51,SE,135,1.2,0.0,97,0.00,CLR,SKC,0.00,WeatherDisplay:10.37,2013-02-28 14:01:00,
2013-02-28 09:06:00,32.4,31.6,28.52,SE,135,1.2,0.0,97,0.00,CLR,SKC,0.00,WeatherDisplay:10.37,2013-02-28 14:06:00,
2013-02-28 09:11:00,32.2,31.7,28.52,SE,135,8.1,8.1,98,0.00,CLR,SKC,0.00,WeatherDisplay:10.37,2013-02-28 14:11:00,
2013-02-28 09:16:00,32.2,31.9,28.52,NNE,14,4.6,4.6,99,0.00,,SKC,0.00,WeatherDisplay:10.37,2013-02-28 14:16:00,
2013-02-28 09:21:00,32.2,32.2,28.51,East,90,6.9,6.9,100,0.00,,SKC,0.00,WeatherDisplay:10.37,2013-02-28 14:21:00,
2013-02-28 09:26:00,32.2,32.2,28.52,North,8,6.9,6.9,100,0.00,,SKC,0.00,WeatherDisplay:10.37,2013-02-28 14:26:00,
2013-02-28 09:31:00,32.2,32.2,28.52,WNW,292,5.8,5.8,100,0.00,,SKC,0.00,WeatherDisplay:10.37,2013-02-28 14:31:00,
2013-02-28 09:36:00,32.2,32.2,28.52,North,1,5.8,5.8,100,0.00,,SKC,0.00,WeatherDisplay:10.37,2013-02-28 14:36:00,
2013-02-28 09:41:00,32.2,32.2,28.52,SE,135,4.6,4.6,100,0.00,,SKC,0.00,WeatherDisplay:10.37,2013-02-28 14:41:00,
2013-02-28 09:46:00,32.2,32.2,28.52,South,180,4.6,4.6,100,0.00,,SKC,0.00,WeatherDisplay:10.37,2013-02-28 14:46:00,
2013-02-28 09:51:00,32.2,32.2,28.52,South,180,6.9,6.9,100,0.00,,SKC,0.00,WeatherDisplay:10.37,2013-02-28 14:51:00,
2013-02-28 09:56:00,32.0,32.0,28.52,North,8,6.9,6.9,100,0.00,,SKC,0.00,WeatherDisplay:10.37,2013-02-28 14:56:00,
2013-02-28 10:01:00,32.0,32.0,28.52,SE,135,5.8,5.8,100,0.00,,SKC,0.00,WeatherDisplay:10.37,2013-02-28 15:01:00,
2013-02-28 10:06:00,32.0,32.0,28.52,NW,315,5.8,5.8,100,0.00,,SKC,0.00,WeatherDisplay:10.37,2013-02-28 15:06:00,
2013-02-28 10:11:00,32.0,32.0,28.52,NNE,12,5.8,5.8,100,0.00,,SKC,0.00,WeatherDisplay:10.37,2013-02-28 15:11:00,
2013-02-28 10:16:00,32.0,32.0,28.52,North,6,5.8,5.8,100,0.00,,SKC,0.00,WeatherDisplay:10.37,2013-02-28 15:16:00,
2013-02-28 10:21:00,32.0,32.0,28.52,North,0,4.6,4.6,100,0.00,,SKC,0.00,WeatherDisplay:10.37,2013-02-28 15:21:00,
2013-02-28 10:26:00,32.0,32.0,28.52,South,180,5.8,5.8,100,0.00,,SKC,0.00,WeatherDisplay:10.37,2013-02-28 15:26:00,
2013-02-28 10:31:00,32.0,32.0,28.53,SE,135,5.8,5.8,100,0.00,,SKC,0.00,WeatherDisplay:10.37,2013-02-28 15:31:00,
2013-02-28 10:36:00,32.0,32.0,28.53,East,90,4.6,4.6,100,0.00,,SKC,0.00,WeatherDisplay:10.37,2013-02-28 15:36:00,
2013-02-28 10:41:00,32.0,32.0,28.53,South,180,2.3,0.0,100,0.00,,SKC,0.00,WeatherDisplay:10.37,2013-02-28 15:41:00,
2013-02-28 10:46:00,32.0,32.0,28.53,South,180,5.8,0.0,100,0.00,,SKC,0.00,WeatherDisplay:10.37,2013-02-28 15:46:00,
2013-02-28 10:51:00,32.0,32.0,28.53,South,180,2.3,2.3,100,0.00,,SKC,0.00,WeatherDisplay:10.37,2013-02-28 15:51:00,
2013-02-28 10:56:00,32.0,32.0,28.53,SE,135,4.6,4.6,100,0.00,,SKC,0.00,WeatherDisplay:10.37,2013-02-28 15:56:00,
2013-02-28 11:01:00,32.0,32.0,28.53,SE,135,5.8,5.8,100,0.00,,SKC,0.00,WeatherDisplay:10.37,2013-02-28 16:01:00,
2013-02-28 11:06:00,32.0,32.0,28.53,SE,135,3.5,3.5,100,0.00,,SKC,0.00,WeatherDisplay:10.37,2013-02-28 16:06:00,
2013-02-28 11:11:00,32.0,32.0,28.53,South,180,3.5,3.5,100,0.00,,SKC,0.00,WeatherDisplay:10.37,2013-02-28 16:11:00,
2013-02-28 11:16:00,32.0,32.0,28.53,North,0,5.8,5.8,100,0.00,,SKC,0.00,WeatherDisplay:10.37,2013-02-28 16:16:00,
2013-02-28 11:21:00,32.0,32.0,28.53,South,180,6.9,6.9,100,0.00,,SKC,0.00,WeatherDisplay:10.37,2013-02-28 16:21:00,
2013-02-28 11:26:00,31.8,31.8,28.53,South,180,4.6,4.6,100,0.00,,SKC,0.00,WeatherDisplay:10.37,2013-02-28 16:26:00,
2013-02-28 11:31:00,32.0,32.0,28.53,South,180,5.8,5.8,100,0.00,,SKC,0.00,WeatherDisplay:10.37,2013-02-28 16:31:00,
2013-02-28 11:37:00,32.0,32.0,28.53,North,8,8.1,8.1,100,0.00,,SKC,0.00,WeatherDisplay:10.37,2013-02-28 16:37:00,
2013-02-28 11:42:00,32.0,32.0,28.53,South,180,4.6,4.6,100,0.00,,SKC,0.00,WeatherDisplay:10.37,2013-02-28 16:42:00,
2013-02-28 11:47:00,32.0,32.0,28.53,South,180,5.8,5.8,100,0.00,,SKC,0.00,WeatherDisplay:10.37,2013-02-28 16:47:00,
2013-02-28 11:52:00,32.2,32.2,28.53,North,8,8.1,8.1,100,0.00,,SKC,0.00,WeatherDisplay:10.37,2013-02-28 16:52:00,
2013-02-28 11:57:00,32.4,32.4,28.53,South,180,3.5,3.5,100,0.00,,SKC,0.00,WeatherDisplay:10.37,2013-02-28 16:57:00,
2013-02-28 12:02:00,32.5,32.5,28.53,South,180,6.9,6.9,100,0.00,,SKC,0.00,WeatherDisplay:10.37,2013-02-28 17:02:00,
2013-02-28 12:07:00,32.7,32.7,28.53,South,180,4.6,4.6,100,0.00,,SKC,0.00,WeatherDisplay:10.37,2013-02-28 17:07:00,
2013-02-28 12:12:00,32.9,32.9,28.53,WSW,248,5.8,5.8,100,0.00,,SKC,0.00,WeatherDisplay:10.37,2013-02-28 17:12:00,
2013-02-28 12:17:00,33.1,33.1,28.53,NW,315,3.5,3.5,100,0.00,,SKC,0.00,WeatherDisplay:10.37,2013-02-28 17:17:00,
2013-02-28 12:22:00,33.1,33.1,28.53,South,180,4.6,4.6,100,0.00,,SKC,0.00,WeatherDisplay:10.37,2013-02-28 17:22:00,
2013-02-28 12:27:00,33.3,33.3,28.53,East,90,3.5,3.5,100,0.00,,SKC,0.00,WeatherDisplay:10.37,2013-02-28 17:27:00,
2013-02-28 12:32:00,33.1,33.1,28.52,South,180,5.8,5.8,100,0.00,,SKC,0.00,WeatherDisplay:10.37,2013-02-28 17:32:00,
2013-02-28 12:37:00,32.9,32.9,28.52,East,90,5.8,5.8,100,0.00,,SKC,0.00,WeatherDisplay:10.37,2013-02-28 17:37:00,
2013-02-28 12:42:00,32.7,32.7,28.53,SE,135,5.8,5.8,100,0.00,,SKC,0.00,WeatherDisplay:10.37,2013-02-28 17:42:00,
2013-02-28 12:47:00,32.7,32.7,28.53,East,90,5.8,5.8,100,0.00,,SKC,0.00,WeatherDisplay:10.37,2013-02-28 17:47:00,
2013-02-28 12:52:00,32.5,32.5,28.52,NE,45,5.8,5.8,100,0.00,,SKC,0.00,WeatherDisplay:10.37,2013-02-28 17:52:00,
2013-02-28 12:57:00,32.5,32.5,28.52,South,180,3.5,3.5,100,0.00,,SKC,0.00,WeatherDisplay:10.37,2013-02-28 17:57:00,
2013-02-28 13:02:00,32.5,32.5,28.52,West,270,6.9,6.9,100,0.00,,SKC,0.00,WeatherDisplay:10.37,2013-02-28 18:02:00,
2013-02-28 13:07:00,32.5,32.5,28.52,South,180,6.9,6.9,100,0.00,,SKC,0.00,WeatherDisplay:10.37,2013-02-28 18:07:00,
2013-02-28 13:12:00,32.4,32.4,28.52,South,180,5.8,5.8,100,0.00,,SKC,0.00,WeatherDisplay:10.37,2013-02-28 18:12:00,
2013-02-28 13:17:00,32.5,32.5,28.52,South,180,5.8,5.8,100,0.00,,SKC,0.00,WeatherDisplay:10.37,2013-02-28 18:17:00,
2013-02-28 13:22:00,32.7,32.7,28.52,South,180,5.8,5.8,100,0.00,,SKC,0.00,WeatherDisplay:10.37,2013-02-28 18:22:00,
2013-02-28 13:27:00,32.7,32.7,28.51,North,8,5.8,5.8,100,0.00,,SKC,0.00,WeatherDisplay:10.37,2013-02-28 18:27:00,
2013-02-28 13:32:00,32.7,32.7,28.52,North,6,4.6,4.6,100,0.00,,SKC,0.00,WeatherDisplay:10.37,2013-02-28 18:32:00,
2013-02-28 13:37:00,32.5,32.5,28.51,West,270,8.1,8.1,100,0.00,,SKC,0.00,WeatherDisplay:10.37,2013-02-28 18:37:00,
2013-02-28 13:42:00,32.4,32.4,28.51,NE,45,5.8,5.8,100,0.00,,SKC,0.00,WeatherDisplay:10.37,2013-02-28 18:42:00,
2013-02-28 13:47:00,32.4,32.4,28.51,NE,45,8.1,8.1,100,0.01,RA,SKC,0.01,WeatherDisplay:10.37,2013-02-28 18:47:00,
2013-02-28 13:52:00,32.4,32.4,28.51,NNE,22,3.5,3.5,100,0.01,RA,SKC,0.01,WeatherDisplay:10.37,2013-02-28 18:52:00,
2013-02-28 13:58:00,32.4,32.4,28.52,South,180,4.6,4.6,100,0.01,CLR,SKC,0.01,WeatherDisplay:10.37,2013-02-28 18:58:00,
2013-02-28 14:03:00,32.4,32.4,28.52,South,180,4.6,4.6,100,0.01,CLR,SKC,0.01,WeatherDisplay:10.37,2013-02-28 19:03:00,
2013-02-28 14:08:00,32.5,32.5,28.51,South,180,3.5,3.5,100,0.01,CLR,SKC,0.01,WeatherDisplay:10.37,2013-02-28 19:08:00,
2013-02-28 14:16:00,32.5,32.5,28.51,South,180,3.5,3.5,100,0.01,CLR,SKC,0.02,WeatherDisplay:10.37,2013-02-28 19:16:00,
2013-02-28 14:21:00,32.5,32.5,28.52,North,8,3.5,3.5,100,0.02,RA,SKC,0.02,WeatherDisplay:10.37,2013-02-28 19:21:00,
2013-02-28 14:26:00,32.5,32.5,28.52,North,2,4.6,4.6,100,0.02,,SKC,0.02,WeatherDisplay:10.37,2013-02-28 19:26:00,
2013-02-28 14:31:00,32.7,32.7,28.52,North,0,6.9,6.9,100,0.02,CLR,SKC,0.02,WeatherDisplay:10.37,2013-02-28 19:31:00,
2013-02-28 14:36:00,32.5,32.5,28.52,North,8,5.8,5.8,100,0.02,CLR,SKC,0.02,WeatherDisplay:10.37,2013-02-28 19:36:00,
2013-02-28 14:41:00,32.5,32.5,28.51,South,180,3.5,3.5,100,0.02,CLR,SKC,0.02,WeatherDisplay:10.37,2013-02-28 19:41:00,
2013-02-28 15:04:00,32.7,32.7,28.52,North,8,4.6,4.6,100,0.04,RA,SKC,0.05,WeatherDisplay:10.37,2013-02-28 20:04:00,
2013-02-28 15:09:00,32.7,32.7,28.52,South,180,5.8,5.8,100,0.04,,SKC,0.05,WeatherDisplay:10.37,2013-02-28 20:09:00,
2013-02-28 15:14:00,32.9,32.9,28.53,West,270,3.5,3.5,100,0.04,CLR,SKC,0.05,WeatherDisplay:10.37,2013-02-28 20:14:00,
2013-02-28 15:19:00,32.9,32.9,28.53,South,180,4.6,4.6,100,0.02,CLR,SKC,0.05,WeatherDisplay:10.37,2013-02-28 20:19:00,
2013-02-28 15:24:00,32.7,32.7,28.53,North,0,4.6,0.0,100,0.02,CLR,SKC,0.05,WeatherDisplay:10.37,2013-02-28 20:24:00,
2013-02-28 15:29:00,32.9,32.9,28.52,South,180,3.5,3.5,100,0.02,CLR,SKC,0.05,WeatherDisplay:10.37,2013-02-28 20:29:00,
2013-02-28 15:34:00,32.7,32.7,28.52,South,180,3.5,0.0,100,0.02,CLR,SKC,0.05,WeatherDisplay:10.37,2013-02-28 20:34:00,
2013-02-28 15:39:00,32.7,32.7,28.52,South,180,3.5,3.5,100,0.02,CLR,SKC,0.05,WeatherDisplay:10.37,2013-02-28 20:39:00,
2013-02-28 15:44:00,32.9,32.9,28.53,NW,315,3.5,3.5,100,0.02,CLR,SKC,0.05,WeatherDisplay:10.37,2013-02-28 20:44:00,
2013-02-28 15:49:00,32.7,32.7,28.53,South,180,5.8,5.8,100,0.01,CLR,SKC,0.05,WeatherDisplay:10.37,2013-02-28 20:49:00,
2013-02-28 15:54:00,32.7,32.7,28.53,South,180,4.6,0.0,100,0.02,RA,SKC,0.06,WeatherDisplay:10.37,2013-02-28 20:54:00,
2013-02-28 15:59:00,32.7,32.7,28.53,South,180,3.5,3.5,100,0.01,RA,SKC,0.06,WeatherDisplay:10.37,2013-02-28 20:59:00,
2013-02-28 16:04:00,32.5,32.5,28.53,South,180,3.5,3.5,100,0.01,,SKC,0.06,WeatherDisplay:10.37,2013-02-28 21:04:00,
2013-02-28 16:09:00,32.5,32.5,28.53,South,180,3.5,3.5,100,0.01,CLR,SKC,0.06,WeatherDisplay:10.37,2013-02-28 21:09:00,
2013-02-28 16:14:00,32.5,32.5,28.53,South,180,5.8,5.8,100,0.01,CLR,SKC,0.06,WeatherDisplay:10.37,2013-02-28 21:14:00,
2013-02-28 16:19:00,32.5,32.5,28.53,West,270,2.3,0.0,100,0.01,CLR,SKC,0.06,WeatherDisplay:10.37,2013-02-28 21:19:00,
2013-02-28 16:24:00,32.5,32.5,28.54,South,180,3.5,3.5,100,0.01,CLR,SKC,0.06,WeatherDisplay:10.37,2013-02-28 21:24:00,
2013-02-28 16:29:00,32.5,32.5,28.54,North,1,3.5,3.5,100,0.01,CLR,SKC,0.06,WeatherDisplay:10.37,2013-02-28 21:29:00,
2013-02-28 16:34:00,32.5,32.5,28.54,South,180,5.8,5.8,100,0.01,CLR,SKC,0.06,WeatherDisplay:10.37,2013-02-28 21:34:00,
2013-02-28 16:39:00,32.5,32.5,28.54,SE,135,5.8,5.8,100,0.01,CLR,SKC,0.06,WeatherDisplay:10.37,2013-02-28 21:39:00,
2013-02-28 16:44:00,32.5,32.5,28.54,North,6,5.8,5.8,100,0.01,CLR,SKC,0.06,WeatherDisplay:10.37,2013-02-28 21:44:00,
2013-02-28 16:49:00,32.5,32.5,28.54,North,0,4.6,4.6,100,0.01,CLR,SKC,0.06,WeatherDisplay:10.37,2013-02-28 21:49:00,
2013-02-28 16:54:00,32.5,32.5,28.54,NE,45,8.1,8.1,100,0.00,,SKC,0.06,WeatherDisplay:10.37,2013-02-28 21:54:00,
2013-02-28 16:59:00,32.5,32.5,28.54,NE,45,6.9,6.9,100,0.00,,SKC,0.06,WeatherDisplay:10.37,2013-02-28 21:59:00,
2013-02-28 17:04:00,32.5,32.5,28.54,North,0,4.6,4.6,100,0.00,,SKC,0.06,WeatherDisplay:10.37,2013-02-28 22:04:00,
2013-02-28 17:09:00,32.5,32.5,28.55,SE,135,8.1,8.1,100,0.00,,SKC,0.06,WeatherDisplay:10.37,2013-02-28 22:09:00,
2013-02-28 17:14:00,32.7,32.7,28.55,North,0,5.8,5.8,100,0.00,,SKC,0.06,WeatherDisplay:10.37,2013-02-28 22:14:00,
2013-02-28 17:19:00,32.5,32.5,28.55,SE,135,3.5,3.5,100,0.00,,SKC,0.06,WeatherDisplay:10.37,2013-02-28 22:19:00,
2013-02-28 17:24:00,32.5,32.5,28.55,North,0,4.6,4.6,100,0.00,,SKC,0.06,WeatherDisplay:10.37,2013-02-28 22:24:00,
2013-02-28 17:29:00,32.5,32.5,28.56,North,8,3.5,3.5,100,0.00,,SKC,0.06,WeatherDisplay:10.37,2013-02-28 22:29:00,
2013-02-28 17:34:00,32.5,32.5,28.56,North,0,6.9,6.9,100,0.00,,SKC,0.06,WeatherDisplay:10.37,2013-02-28 22:34:00,
2013-02-28 17:39:00,32.5,32.5,28.56,South,180,4.6,4.6,100,0.00,,SKC,0.06,WeatherDisplay:10.37,2013-02-28 22:39:00,
2013-02-28 17:44:00,32.7,32.7,28.56,West,270,6.9,6.9,100,0.00,,SKC,0.06,WeatherDisplay:10.37,2013-02-28 22:44:00,
2013-02-28 17:49:00,32.5,32.5,28.57,North,1,4.6,0.0,100,0.00,,SKC,0.06,WeatherDisplay:10.37,2013-02-28 22:49:00,
2013-02-28 17:54:00,32.7,32.7,28.57,SE,135,5.8,5.8,100,0.00,,SKC,0.06,WeatherDisplay:10.37,2013-02-28 22:54:00,
2013-02-28 17:59:00,32.7,32.7,28.57,SE,135,8.1,8.1,100,0.00,,SKC,0.06,WeatherDisplay:10.37,2013-02-28 22:59:00,
2013-02-28 18:04:00,32.7,32.7,28.57,SE,135,8.3,8.3,100,0.00,,SKC,0.06,WeatherDisplay:10.37,2013-02-28 23:04:00,
2013-02-28 18:09:00,32.7,32.7,28.58,North,6,3.5,3.5,100,0.00,,SKC,0.06,WeatherDisplay:10.37,2013-02-28 23:09:00,
2013-02-28 18:14:00,32.7,32.7,28.58,NNE,14,6.9,6.9,100,0.00,,SKC,0.06,WeatherDisplay:10.37,2013-02-28 23:14:00,
2013-02-28 18:19:00,32.9,32.9,28.58,North,0,2.3,0.0,100,0.00,,SKC,0.06,WeatherDisplay:10.37,2013-02-28 23:19:00,
2013-02-28 18:24:00,32.9,32.9,28.58,North,0,5.8,5.8,100,0.00,,SKC,0.06,WeatherDisplay:10.37,2013-02-28 23:24:00,
2013-02-28 18:29:00,32.7,32.7,28.58,North,0,4.6,4.6,100,0.00,,SKC,0.06,WeatherDisplay:10.37,2013-02-28 23:29:00,
2013-02-28 18:34:00,32.9,32.9,28.58,South,180,5.8,5.8,100,0.00,,SKC,0.06,WeatherDisplay:10.37,2013-02-28 23:34:00,
2013-02-28 18:39:00,33.1,33.1,28.58,North,0,6.9,6.9,100,0.01,RA,SKC,0.07,WeatherDisplay:10.37,2013-02-28 23:39:00,
2013-02-28 18:44:00,33.1,33.1,28.59,North,0,3.5,3.5,100,0.01,RA,SKC,0.07,WeatherDisplay:10.37,2013-02-28 23:44:00,
2013-02-28 18:49:00,33.1,33.1,28.60,North,0,5.8,5.8,100,0.01,CLR,SKC,0.07,WeatherDisplay:10.37,2013-02-28 23:49:00,
2013-02-28 18:54:00,33.1,33.1,28.59,North,0,5.8,5.8,100,0.01,CLR,SKC,0.07,WeatherDisplay:10.37,2013-02-28 23:54:00,
2013-02-28 18:59:00,33.1,33.1,28.60,NNE,15,4.6,4.6,100,0.01,CLR,SKC,0.07,WeatherDisplay:10.37,2013-02-28 23:59:00,
2013-02-28 19:04:00,33.1,33.1,28.60,North,0,3.5,3.5,100,0.01,CLR,SKC,0.07,WeatherDisplay:10.37,2013-03-01 00:04:00,
2013-02-28 19:09:00,33.3,33.3,28.60,North,0,5.8,5.8,100,0.01,CLR,SKC,0.07,WeatherDisplay:10.37,2013-03-01 00:09:00,
2013-02-28 19:14:00,33.3,33.3,28.60,North,0,8.1,8.1,100,0.01,CLR,SKC,0.07,WeatherDisplay:10.37,2013-03-01 00:14:00,
2013-02-28 19:19:00,33.3,33.3,28.61,West,270,10.4,10.4,100,0.01,CLR,SKC,0.07,WeatherDisplay:10.37,2013-03-01 00:19:00,
2013-02-28 19:24:00,33.3,33.3,28.61,North,1,8.1,8.1,100,0.01,CLR,SKC,0.07,WeatherDisplay:10.37,2013-03-01 00:24:00,
2013-02-28 19:29:00,33.3,33.3,28.62,NNE,12,11.5,11.5,100,0.01,CLR,SKC,0.07,WeatherDisplay:10.37,2013-03-01 00:29:00,
2013-02-28 19:34:00,33.3,33.3,28.61,West,270,10.4,10.4,100,0.01,CLR,SKC,0.07,WeatherDisplay:10.37,2013-03-01 00:34:00,
2013-02-28 19:39:00,33.3,33.3,28.62,NNE,16,12.7,12.7,100,0.00,CLR,SKC,0.07,WeatherDisplay:10.37,2013-03-01 00:39:00,
2013-02-28 19:44:00,33.3,33.3,28.62,NNE,12,5.8,5.8,100,0.00,CLR,SKC,0.07,WeatherDisplay:10.37,2013-03-01 00:44:00,
2013-02-28 19:49:00,33.3,33.3,28.62,South,180,8.1,8.1,100,0.00,CLR,SKC,0.07,WeatherDisplay:10.37,2013-03-01 00:49:00,
2013-02-28 19:54:00,33.3,33.3,28.62,North,0,13.8,13.8,100,0.00,CLR,SKC,0.07,WeatherDisplay:10.37,2013-03-01 00:54:00,
2013-02-28 20:00:00,33.3,33.3,28.62,North,0,5.8,5.8,100,0.00,CLR,SKC,0.07,WeatherDisplay:10.37,2013-03-01 01:00:00,
2013-02-28 20:05:00,33.3,33.3,28.63,North,0,8.1,8.1,100,0.00,CLR,SKC,0.07,WeatherDisplay:10.37,2013-03-01 01:05:00,
2013-02-28 20:10:00,33.1,33.1,28.63,North,0,8.1,8.1,100,0.00,CLR,SKC,0.07,WeatherDisplay:10.37,2013-03-01 01:10:00,
2013-02-28 20:15:00,33.1,33.1,28.63,North,0,10.4,10.4,100,0.00,CLR,SKC,0.07,WeatherDisplay:10.37,2013-03-01 01:15:00,
2013-02-28 20:20:00,33.1,33.1,28.63,North,0,9.2,9.2,100,0.00,,SKC,0.07,WeatherDisplay:10.37,2013-03-01 01:20:00,
2013-02-28 20:25:00,32.9,32.9,28.63,North,0,8.1,8.1,100,0.00,CLR,SKC,0.07,WeatherDisplay:10.37,2013-03-01 01:25:00,
2013-02-28 20:30:00,32.9,32.9,28.64,North,8,12.7,12.7,100,0.00,CLR,SKC,0.07,WeatherDisplay:10.37,2013-03-01 01:30:00,
2013-02-28 20:35:00,32.9,32.9,28.64,NNE,16,10.4,10.4,100,0.00,CLR,SKC,0.07,WeatherDisplay:10.37,2013-03-01 01:35:00,
2013-02-28 20:40:00,33.1,33.1,28.64,NW,315,15.0,15.0,100,0.00,CLR,SKC,0.07,WeatherDisplay:10.37,2013-03-01 01:40:00,
2013-02-28 20:45:00,33.1,33.1,28.65,North,1,10.4,10.4,100,0.00,CLR,SKC,0.07,WeatherDisplay:10.37,2013-03-01 01:45:00,
2013-02-28 20:50:00,32.9,32.9,28.64,North,0,10.4,10.4,100,0.00,CLR,SKC,0.07,WeatherDisplay:10.37,2013-03-01 01:50:00,
2013-02-28 20:55:00,32.9,32.9,28.65,North,0,8.1,8.1,100,0.00,CLR,SKC,0.07,WeatherDisplay:10.37,2013-03-01 01:55:00,
2013-02-28 21:00:00,32.9,32.9,28.65,North,0,5.8,5.8,100,0.00,,SKC,0.07,WeatherDisplay:10.37,2013-03-01 02:00:00,
2013-02-28 21:05:00,32.9,32.9,28.66,North,0,4.6,4.6,100,0.00,,SKC,0.07,WeatherDisplay:10.37,2013-03-01 02:05:00,
2013-02-28 21:10:00,32.7,32.7,28.66,North,0,8.1,8.1,100,0.00,,SKC,0.07,WeatherDisplay:10.37,2013-03-01 02:10:00,
2013-02-28 21:15:00,32.7,32.7,28.65,North,0,5.8,5.8,100,0.00,,SKC,0.07,WeatherDisplay:10.37,2013-03-01 02:15:00,
2013-02-28 21:20:00,32.7,32.7,28.65,SE,135,6.9,6.9,100,0.00,,SKC,0.07,WeatherDisplay:10.37,2013-03-01 02:20:00,
2013-02-28 21:25:00,32.5,32.5,28.66,NW,315,9.2,9.2,100,0.00,,SKC,0.07,WeatherDisplay:10.37,2013-03-01 02:25:00,
2013-02-28 21:30:00,32.5,32.5,28.65,North,1,8.1,8.1,100,0.00,,SKC,0.07,WeatherDisplay:10.37,2013-03-01 02:30:00,
2013-02-28 21:35:00,32.5,32.5,28.66,NW,315,6.9,6.9,100,0.00,,SKC,0.07,WeatherDisplay:10.37,2013-03-01 02:35:00,
2013-02-28 21:40:00,32.5,32.5,28.66,North,1,10.4,10.4,100,0.00,CLR,SKC,0.07,WeatherDisplay:10.37,2013-03-01 02:40:00,
2013-02-28 21:45:00,32.5,32.5,28.66,North,0,9.2,9.2,100,0.00,CLR,SKC,0.07,WeatherDisplay:10.37,2013-03-01 02:45:00,
2013-02-28 21:50:00,32.5,32.5,28.66,North,0,5.8,5.8,100,0.00,CLR,SKC,0.07,WeatherDisplay:10.37,2013-03-01 02:50:00,
2013-02-28 21:56:00,32.4,32.4,28.66,North,0,8.1,8.1,100,0.00,CLR,SKC,0.07,WeatherDisplay:10.37,2013-03-01 02:56:00,
2013-02-28 22:01:00,32.4,32.4,28.66,North,0,6.9,6.9,100,0.00,CLR,SKC,0.07,WeatherDisplay:10.37,2013-03-01 03:01:00,
2013-02-28 22:06:00,32.4,32.4,28.66,North,0,6.9,6.9,100,0.00,,SKC,0.07,WeatherDisplay:10.37,2013-03-01 03:06:00,
2013-02-28 22:11:00,32.4,32.4,28.66,North,0,5.8,5.8,100,0.00,,SKC,0.07,WeatherDisplay:10.37,2013-03-01 03:11:00,
2013-02-28 22:16:00,32.4,32.4,28.66,North,0,4.6,4.6,100,0.00,,SKC,0.07,WeatherDisplay:10.37,2013-03-01 03:16:00,
2013-02-28 22:21:00,32.4,32.4,28.66,North,0,6.9,6.9,100,0.00,,SKC,0.07,WeatherDisplay:10.37,2013-03-01 03:21:00,
2013-02-28 22:26:00,32.4,32.4,28.66,North,0,11.5,11.5,100,0.00,,SKC,0.07,WeatherDisplay:10.37,2013-03-01 03:26:00,
2013-02-28 22:31:00,32.2,32.2,28.66,North,0,8.1,8.1,100,0.00,,SKC,0.07,WeatherDisplay:10.37,2013-03-01 03:31:00,
2013-02-28 22:36:00,32.2,32.2,28.65,North,0,11.5,11.5,100,0.00,CLR,SKC,0.07,WeatherDisplay:10.37,2013-03-01 03:36:00,
2013-02-28 22:41:00,32.2,32.2,28.66,North,0,6.9,6.9,100,0.00,,SKC,0.07,WeatherDisplay:10.37,2013-03-01 03:41:00,
2013-02-28 22:46:00,32.2,32.2,28.66,North,0,5.8,5.8,100,0.00,,SKC,0.07,WeatherDisplay:10.37,2013-03-01 03:46:00,
2013-02-28 22:51:00,32.2,32.2,28.66,North,0,12.7,12.7,100,0.00,,SKC,0.07,WeatherDisplay:10.37,2013-03-01 03:51:00,
2013-02-28 22:56:00,32.2,32.2,28.66,North,0,6.9,6.9,100,0.00,CLR,SKC,0.07,WeatherDisplay:10.37,2013-03-01 03:56:00,
2013-02-28 23:01:00,32.2,32.2,28.66,North,0,6.9,6.9,100,0.00,CLR,SKC,0.07,WeatherDisplay:10.37,2013-03-01 04:01:00,
2013-02-28 23:06:00,32.2,32.2,28.66,North,0,6.9,6.9,100,0.00,CLR,SKC,0.07,WeatherDisplay:10.37,2013-03-01 04:06:00,
2013-02-28 23:11:00,32.2,32.2,28.66,North,0,13.8,13.8,100,0.00,CLR,SKC,0.07,WeatherDisplay:10.37,2013-03-01 04:11:00,
2013-02-28 23:16:00,32.4,32.4,28.66,North,0,5.8,5.8,100,0.00,CLR,SKC,0.07,WeatherDisplay:10.37,2013-03-01 04:16:00,
2013-02-28 23:21:00,32.2,32.2,28.66,North,0,12.7,12.7,100,0.00,CLR,SKC,0.07,WeatherDisplay:10.37,2013-03-01 04:21:00,
2013-02-28 23:26:00,32.2,32.2,28.66,North,0,8.1,8.1,100,0.00,CLR,SKC,0.07,WeatherDisplay:10.37,2013-03-01 04:26:00,
2013-02-28 23:31:00,32.2,32.2,28.66,North,0,11.5,11.5,100,0.00,CLR,SKC,0.07,WeatherDisplay:10.37,2013-03-01 04:31:00,
2013-02-28 23:36:00,32.2,32.2,28.66,North,0,9.2,9.2,100,0.00,CLR,SKC,0.07,WeatherDisplay:10.37,2013-03-01 04:36:00,
2013-02-28 23:41:00,32.2,32.2,28.66,North,0,8.1,8.1,100,0.00,CLR,SKC,0.07,WeatherDisplay:10.37,2013-03-01 04:41:00,
2013-02-28 23:46:00,32.2,32.2,28.66,North,0,16.1,16.1,100,0.00,CLR,SKC,0.07,WeatherDisplay:10.37,2013-03-01 04:46:00,
2013-02-28 23:51:00,32.0,32.0,28.66,North,0,11.5,11.5,100,0.00,CLR,SKC,0.07,WeatherDisplay:10.37,2013-03-01 04:51:00,
2013-02-28 23:56:00,32.0,32.0,28.66,NW,315,10.4,10.4,100,0.00,CLR,SKC,0.07,WeatherDisplay:10.37,2013-03-01 04:56:00,